createdAt,value
2022-08-24T00:01:51.455Z,19.34
2022-08-24T00:16:54.202Z,20.48
2022-08-24T00:31:55.821Z,21.30
2022-08-24T00:47:03.688Z,19.65
2022-08-24T01:02:15.309Z,19.85
2022-08-24T01:17:38.788Z,18.68
2022-08-24T01:32:41.432Z,19.51
2022-08-24T01:47:42.998Z,20.81
2022-08-24T02:02:44.743Z,18.65
2022-08-24T02:17:46.258Z,19.48
2022-08-24T02:32:47.829Z,18.05
2022-08-24T02:47:49.394Z,19.18
2022-08-24T03:02:51.667Z,18.66
2022-08-24T03:17:53.363Z,18.48
2022-08-24T03:32:54.934Z,18.16
2022-08-24T03:47:56.544Z,18.25
2022-08-24T04:02:58.082Z,18.50
2022-08-24T04:17:59.689Z,18.60
2022-08-24T04:33:01.313Z,19.26
2022-08-24T04:48:02.960Z,20.95
2022-08-24T05:03:05.105Z,20.22
2022-08-24T05:18:07.528Z,21.87
2022-08-24T05:33:09.172Z,23.03
2022-08-24T05:48:10.753Z,22.76
2022-08-24T06:03:14.791Z,22.95
2022-08-24T06:18:16.461Z,23.08
2022-08-24T06:33:18.114Z,24.50
2022-08-24T06:48:19.674Z,24.84
2022-08-24T07:03:21.324Z,26.47
2022-08-24T07:18:23.185Z,27.62
2022-08-24T07:33:25.473Z,25.88
2022-08-24T07:48:28.612Z,27.09
2022-08-24T08:03:32.058Z,27.71
2022-08-24T08:18:33.703Z,27.29
2022-08-24T08:33:38.193Z,29.19
2022-08-24T08:48:39.787Z,28.17
2022-08-24T09:04:12.724Z,27.83
2022-08-24T09:19:42.316Z,28.69
2022-08-24T09:34:50.846Z,27.95
2022-08-24T09:50:10.262Z,27.92
2022-08-24T10:05:15.677Z,27.26
2022-08-24T10:20:17.254Z,27.86
2022-08-24T10:35:26.042Z,28.48
2022-08-24T10:50:40.950Z,29.15
2022-08-24T11:05:47.832Z,27.83
2022-08-24T11:20:51.182Z,28.66
2022-08-24T11:35:52.886Z,28.81
2022-08-24T11:50:54.386Z,27.18
2022-08-24T12:06:01.059Z,28.51
2022-08-24T12:21:02.724Z,27.38
2022-08-24T12:36:06.901Z,28.43
2022-08-24T12:51:34.676Z,26.28
2022-08-24T13:06:39.231Z,26.50
2022-08-24T13:21:42.831Z,25.42
2022-08-24T13:36:48.737Z,26.12
2022-08-24T13:51:55.108Z,25.93
2022-08-24T14:07:15.795Z,25.59
2022-08-24T14:22:17.409Z,26.44
2022-08-24T14:37:24.058Z,26.78
2022-08-24T14:52:35.497Z,25.62
2022-08-24T15:07:37.155Z,26.38
2022-08-24T15:22:44.271Z,25.45
2022-08-24T15:37:45.774Z,24.43
2022-08-24T15:52:55.139Z,24.41
2022-08-24T16:08:02.864Z,24.64
2022-08-24T16:23:06.667Z,24.55
2022-08-24T16:38:08.217Z,24.56
2022-08-24T16:53:10.479Z,25.40
2022-08-24T17:08:12.855Z,24.29
2022-08-24T17:23:14.832Z,23.53
2022-08-24T17:38:16.342Z,23.91
2022-08-24T17:53:19.253Z,24.37
2022-08-24T18:08:20.780Z,23.06
2022-08-24T18:23:24.708Z,23.14
2022-08-24T18:38:26.964Z,23.53
2022-08-24T18:53:28.911Z,22.03
2022-08-24T19:08:30.492Z,21.71
2022-08-24T19:23:36.160Z,20.90
2022-08-24T19:38:37.747Z,20.97
2022-08-24T19:53:39.614Z,20.42
2022-08-24T20:08:41.436Z,20.56
2022-08-24T20:23:43.631Z,20.53
2022-08-24T20:38:45.527Z,20.44
2022-08-24T20:53:47.097Z,21.75
2022-08-24T21:08:50.719Z,21.68
2022-08-24T21:23:52.283Z,20.40
2022-08-24T21:38:54.740Z,20.60
2022-08-24T21:53:59.594Z,21.17
2022-08-24T22:16:09.808Z,20.42
2022-08-24T22:31:16.139Z,20.13
2022-08-24T22:46:18.384Z,19.95
2022-08-24T23:01:21.880Z,20.68
2022-08-24T23:16:24.468Z,20.22
2022-08-24T23:31:27.288Z,20.38
2022-08-24T23:46:29.000Z,21.14
